sensor_id;sensor_type;location;lat;lon;timestamp;temperature;humidity
68251;DHT22;55066;51.560;4.642;2022-12-08T00:00:10;3.22;99.99
68251;DHT22;55066;51.560;4.642;2022-12-08T00:02:38;3.18;99.99
68251;DHT22;55066;51.560;4.642;2022-12-08T00:05:04;3.25;99.99
68251;DHT22;55066;51.560;4.642;2022-12-08T00:07:50;3.36;99.99
68251;DHT22;55066;51.560;4.642;2022-12-08T00:10:36;3.38;99.99
68251;DHT22;55066;51.560;4.642;2022-12-08T00:13:01;3.39;99.99
68251;DHT22;55066;51.560;4.642;2022-12-08T00:15:27;3.40;99.99
68251;DHT22;55066;51.560;4.642;2022-12-08T00:17:52;3.48;99.99
68251;DHT22;55066;51.560;4.642;2022-12-08T00:20:21;3.58;99.99
68251;DHT22;55066;51.560;4.642;2022-12-08T00:22:46;3.51;99.99
68251;DHT22;55066;51.560;4.642;2022-12-08T00:25:11;3.56;99.99
68251;DHT22;55066;51.560;4.642;2022-12-08T00:27:38;3.45;99.99
68251;DHT22;55066;51.560;4.642;2022-12-08T00:30:07;3.51;99.99
68251;DHT22;55066;51.560;4.642;2022-12-08T00:32:33;3.55;99.99
68251;DHT22;55066;51.560;4.642;2022-12-08T00:34:59;3.52;99.99
68251;DHT22;55066;51.560;4.642;2022-12-08T00:37:24;3.59;99.99
68251;DHT22;55066;51.560;4.642;2022-12-08T00:39:49;3.59;99.99
68251;DHT22;55066;51.560;4.642;2022-12-08T00:42:15;3.60;99.99
68251;DHT22;55066;51.560;4.642;2022-12-08T00:44:44;3.64;99.99
68251;DHT22;55066;51.560;4.642;2022-12-08T00:47:11;3.62;99.99
68251;DHT22;55066;51.560;4.642;2022-12-08T00:49:39;3.63;99.99
68251;DHT22;55066;51.560;4.642;2022-12-08T00:52:05;3.60;99.99
68251;DHT22;55066;51.560;4.642;2022-12-08T00:54:30;3.62;99.99
68251;DHT22;55066;51.560;4.642;2022-12-08T00:56:56;3.63;99.99
68251;DHT22;55066;51.560;4.642;2022-12-08T00:59:25;3.67;99.99
68251;DHT22;55066;51.560;4.642;2022-12-08T01:01:50;3.58;99.99
68251;DHT22;55066;51.560;4.642;2022-12-08T01:04:18;3.58;99.99
68251;DHT22;55066;51.560;4.642;2022-12-08T01:06:44;3.58;99.99
68251;DHT22;55066;51.560;4.642;2022-12-08T01:09:10;3.66;99.99
68251;DHT22;55066;51.560;4.642;2022-12-08T01:11:36;3.60;99.99
68251;DHT22;55066;51.560;4.642;2022-12-08T01:14:02;3.62;99.99
68251;DHT22;55066;51.560;4.642;2022-12-08T01:16:34;3.64;99.99
68251;DHT22;55066;51.560;4.642;2022-12-08T01:19:00;3.63;99.99
68251;DHT22;55066;51.560;4.642;2022-12-08T01:21:26;3.60;99.99
68251;DHT22;55066;51.560;4.642;2022-12-08T01:23:53;3.60;99.99
68251;DHT22;55066;51.560;4.642;2022-12-08T01:26:18;3.66;99.99
68251;DHT22;55066;51.560;4.642;2022-12-08T01:28:45;3.62;99.99
68251;DHT22;55066;51.560;4.642;2022-12-08T01:31:13;3.63;99.99
68251;DHT22;55066;51.560;4.642;2022-12-08T01:33:39;3.63;99.99
68251;DHT22;55066;51.560;4.642;2022-12-08T01:36:05;3.66;99.99
68251;DHT22;55066;51.560;4.642;2022-12-08T01:38:31;3.66;99.99
68251;DHT22;55066;51.560;4.642;2022-12-08T01:40:57;3.74;99.99
68251;DHT22;55066;51.560;4.642;2022-12-08T01:43:22;3.74;99.99
68251;DHT22;55066;51.560;4.642;2022-12-08T01:45:48;3.73;99.99
68251;DHT22;55066;51.560;4.642;2022-12-08T01:48:23;3.70;99.99
68251;DHT22;55066;51.560;4.642;2022-12-08T01:50:50;3.69;99.99
68251;DHT22;55066;51.560;4.642;2022-12-08T01:53:29;3.69;99.99
68251;DHT22;55066;51.560;4.642;2022-12-08T01:56:19;3.73;99.99
68251;DHT22;55066;51.560;4.642;2022-12-08T01:58:50;3.74;99.99
68251;DHT22;55066;51.560;4.642;2022-12-08T02:01:17;3.69;99.99
68251;DHT22;55066;51.560;4.642;2022-12-08T02:03:59;3.67;99.99
68251;DHT22;55066;51.560;4.642;2022-12-08T02:06:26;3.66;99.99
68251;DHT22;55066;51.560;4.642;2022-12-08T02:08:53;3.76;99.99
68251;DHT22;55066;51.560;4.642;2022-12-08T02:11:21;3.83;99.99
68251;DHT22;55066;51.560;4.642;2022-12-08T02:13:50;3.79;99.99
68251;DHT22;55066;51.560;4.642;2022-12-08T02:21:39;3.76;99.99
68251;DHT22;55066;51.560;4.642;2022-12-08T02:24:16;3.73;99.99
68251;DHT22;55066;51.560;4.642;2022-12-08T02:36:22;3.83;99.99
68251;DHT22;55066;51.560;4.642;2022-12-08T02:42:00;3.81;99.99
68251;DHT22;55066;51.560;4.642;2022-12-08T02:44:46;3.77;99.99
68251;DHT22;55066;51.560;4.642;2022-12-08T02:47:17;3.76;99.99
68251;DHT22;55066;51.560;4.642;2022-12-08T02:49:46;3.73;99.99
68251;DHT22;55066;51.560;4.642;2022-12-08T02:54:43;3.87;99.99
68251;DHT22;55066;51.560;4.642;2022-12-08T03:02:48;3.86;99.99
68251;DHT22;55066;51.560;4.642;2022-12-08T03:08:33;4.02;99.99
68251;DHT22;55066;51.560;4.642;2022-12-08T03:11:09;4.07;99.99
68251;DHT22;55066;51.560;4.642;2022-12-08T03:13:44;3.97;99.99
68251;DHT22;55066;51.560;4.642;2022-12-08T03:16:17;3.83;99.99
68251;DHT22;55066;51.560;4.642;2022-12-08T03:18:47;3.83;99.99
68251;DHT22;55066;51.560;4.642;2022-12-08T03:21:19;3.83;99.99
68251;DHT22;55066;51.560;4.642;2022-12-08T03:23:47;3.72;99.99
68251;DHT22;55066;51.560;4.642;2022-12-08T03:28:51;3.53;99.99
68251;DHT22;55066;51.560;4.642;2022-12-08T03:31:18;3.52;99.99
68251;DHT22;55066;51.560;4.642;2022-12-08T03:33:48;3.45;99.99
68251;DHT22;55066;51.560;4.642;2022-12-08T03:36:18;3.40;99.99
68251;DHT22;55066;51.560;4.642;2022-12-08T03:38:45;3.36;99.99
68251;DHT22;55066;51.560;4.642;2022-12-08T03:41:17;3.34;99.99
68251;DHT22;55066;51.560;4.642;2022-12-08T03:43:54;3.29;99.99
68251;DHT22;55066;51.560;4.642;2022-12-08T03:46:24;3.31;99.99
68251;DHT22;55066;51.560;4.642;2022-12-08T03:48:50;3.28;99.99
68251;DHT22;55066;51.560;4.642;2022-12-08T03:51:16;3.35;99.99
68251;DHT22;55066;51.560;4.642;2022-12-08T03:53:48;3.42;99.99
68251;DHT22;55066;51.560;4.642;2022-12-08T03:56:27;3.42;99.99
68251;DHT22;55066;51.560;4.642;2022-12-08T03:58:56;3.36;99.99
68251;DHT22;55066;51.560;4.642;2022-12-08T04:01:22;3.38;99.99
68251;DHT22;55066;51.560;4.642;2022-12-08T04:03:54;3.46;99.99
68251;DHT22;55066;51.560;4.642;2022-12-08T04:06:23;3.42;99.99
68251;DHT22;55066;51.560;4.642;2022-12-08T04:08:49;3.39;99.99
68251;DHT22;55066;51.560;4.642;2022-12-08T04:11:15;3.36;99.99
68251;DHT22;55066;51.560;4.642;2022-12-08T04:13:41;3.43;99.99
68251;DHT22;55066;51.560;4.642;2022-12-08T04:16:07;3.45;99.99
68251;DHT22;55066;51.560;4.642;2022-12-08T04:18:33;3.49;99.99
68251;DHT22;55066;51.560;4.642;2022-12-08T04:20:59;3.51;99.99
68251;DHT22;55066;51.560;4.642;2022-12-08T04:23:30;3.56;99.99
68251;DHT22;55066;51.560;4.642;2022-12-08T04:25:56;3.53;99.99
68251;DHT22;55066;51.560;4.642;2022-12-08T04:28:22;3.51;99.99
68251;DHT22;55066;51.560;4.642;2022-12-08T04:30:50;3.49;99.99
68251;DHT22;55066;51.560;4.642;2022-12-08T04:33:16;3.43;99.99
68251;DHT22;55066;51.560;4.642;2022-12-08T04:35:41;3.43;99.99
68251;DHT22;55066;51.560;4.642;2022-12-08T04:38:07;3.49;99.99
68251;DHT22;55066;51.560;4.642;2022-12-08T04:40:32;3.51;99.99
68251;DHT22;55066;51.560;4.642;2022-12-08T04:42:57;3.49;99.99
68251;DHT22;55066;51.560;4.642;2022-12-08T04:45:25;3.45;99.99
68251;DHT22;55066;51.560;4.642;2022-12-08T04:47:51;3.46;99.99
68251;DHT22;55066;51.560;4.642;2022-12-08T04:50:16;3.51;99.99
68251;DHT22;55066;51.560;4.642;2022-12-08T04:52:42;3.76;99.99
68251;DHT22;55066;51.560;4.642;2022-12-08T04:55:08;3.64;99.99
68251;DHT22;55066;51.560;4.642;2022-12-08T04:57:36;3.83;99.99
68251;DHT22;55066;51.560;4.642;2022-12-08T05:00:04;3.58;99.99
68251;DHT22;55066;51.560;4.642;2022-12-08T05:02:38;3.49;99.99
68251;DHT22;55066;51.560;4.642;2022-12-08T05:05:08;3.45;99.99
68251;DHT22;55066;51.560;4.642;2022-12-08T05:07:33;3.46;99.99
68251;DHT22;55066;51.560;4.642;2022-12-08T05:09:59;3.53;99.99
68251;DHT22;55066;51.560;4.642;2022-12-08T05:12:27;3.64;99.99
68251;DHT22;55066;51.560;4.642;2022-12-08T05:14:58;3.53;99.99
68251;DHT22;55066;51.560;4.642;2022-12-08T05:17:24;3.63;99.99
68251;DHT22;55066;51.560;4.642;2022-12-08T05:19:53;3.59;99.99
68251;DHT22;55066;51.560;4.642;2022-12-08T05:22:18;3.56;99.99
68251;DHT22;55066;51.560;4.642;2022-12-08T05:24:44;3.66;99.99
68251;DHT22;55066;51.560;4.642;2022-12-08T05:27:09;3.66;99.99
68251;DHT22;55066;51.560;4.642;2022-12-08T05:29:35;3.58;99.99
68251;DHT22;55066;51.560;4.642;2022-12-08T05:32:01;3.69;99.99
68251;DHT22;55066;51.560;4.642;2022-12-08T05:34:26;3.66;99.99
68251;DHT22;55066;51.560;4.642;2022-12-08T05:36:52;3.67;99.99
68251;DHT22;55066;51.560;4.642;2022-12-08T05:39:17;3.66;99.99
68251;DHT22;55066;51.560;4.642;2022-12-08T05:41:42;3.76;99.99
68251;DHT22;55066;51.560;4.642;2022-12-08T05:44:08;3.59;99.99
68251;DHT22;55066;51.560;4.642;2022-12-08T05:46:34;3.66;99.99
68251;DHT22;55066;51.560;4.642;2022-12-08T05:49:03;3.64;99.99
68251;DHT22;55066;51.560;4.642;2022-12-08T05:51:29;3.69;99.99
68251;DHT22;55066;51.560;4.642;2022-12-08T05:53:55;3.74;99.99
68251;DHT22;55066;51.560;4.642;2022-12-08T05:56:21;3.67;99.99
68251;DHT22;55066;51.560;4.642;2022-12-08T05:58:47;3.74;99.99
68251;DHT22;55066;51.560;4.642;2022-12-08T06:01:29;3.74;99.99
68251;DHT22;55066;51.560;4.642;2022-12-08T06:04:01;3.64;99.99
68251;DHT22;55066;51.560;4.642;2022-12-08T06:06:28;3.69;99.99
68251;DHT22;55066;51.560;4.642;2022-12-08T06:08:53;3.69;99.99
68251;DHT22;55066;51.560;4.642;2022-12-08T06:11:26;3.73;99.99
68251;DHT22;55066;51.560;4.642;2022-12-08T06:13:52;3.69;99.99
68251;DHT22;55066;51.560;4.642;2022-12-08T06:16:18;3.69;99.99
68251;DHT22;55066;51.560;4.642;2022-12-08T06:18:44;3.59;99.99
68251;DHT22;55066;51.560;4.642;2022-12-08T06:21:11;3.60;99.99
68251;DHT22;55066;51.560;4.642;2022-12-08T06:23:38;3.63;99.99
68251;DHT22;55066;51.560;4.642;2022-12-08T06:26:13;3.64;99.99
68251;DHT22;55066;51.560;4.642;2022-12-08T06:28:40;3.70;99.99
68251;DHT22;55066;51.560;4.642;2022-12-08T06:31:07;3.58;99.99
68251;DHT22;55066;51.560;4.642;2022-12-08T06:33:33;3.53;99.99
68251;DHT22;55066;51.560;4.642;2022-12-08T06:35:59;3.69;99.99
68251;DHT22;55066;51.560;4.642;2022-12-08T06:38:24;3.70;99.99
68251;DHT22;55066;51.560;4.642;2022-12-08T06:40:57;3.70;99.99
68251;DHT22;55066;51.560;4.642;2022-12-08T06:43:23;3.62;99.99
68251;DHT22;55066;51.560;4.642;2022-12-08T06:45:50;3.58;99.99
68251;DHT22;55066;51.560;4.642;2022-12-08T06:48:16;3.55;99.99
68251;DHT22;55066;51.560;4.642;2022-12-08T06:50:42;3.51;99.99
68251;DHT22;55066;51.560;4.642;2022-12-08T06:53:10;3.52;99.99
68251;DHT22;55066;51.560;4.642;2022-12-08T06:58:21;3.43;99.99
68251;DHT22;55066;51.560;4.642;2022-12-08T07:00:47;3.52;99.99
68251;DHT22;55066;51.560;4.642;2022-12-08T07:03:12;3.45;99.99
68251;DHT22;55066;51.560;4.642;2022-12-08T07:05:39;3.48;99.99
68251;DHT22;55066;51.560;4.642;2022-12-08T07:08:06;3.48;99.99
68251;DHT22;55066;51.560;4.642;2022-12-08T07:10:32;3.49;99.99
68251;DHT22;55066;51.560;4.642;2022-12-08T07:12:58;3.43;99.99
68251;DHT22;55066;51.560;4.642;2022-12-08T07:15:23;3.53;99.99
68251;DHT22;55066;51.560;4.642;2022-12-08T07:17:49;3.53;99.99
68251;DHT22;55066;51.560;4.642;2022-12-08T07:20:18;3.56;99.99
68251;DHT22;55066;51.560;4.642;2022-12-08T07:22:55;3.60;99.99
68251;DHT22;55066;51.560;4.642;2022-12-08T07:25:21;3.63;99.99
68251;DHT22;55066;51.560;4.642;2022-12-08T07:27:47;3.84;99.99
68251;DHT22;55066;51.560;4.642;2022-12-08T07:30:15;3.77;99.99
68251;DHT22;55066;51.560;4.642;2022-12-08T07:32:44;3.74;99.99
68251;DHT22;55066;51.560;4.642;2022-12-08T07:35:10;3.66;99.99
68251;DHT22;55066;51.560;4.642;2022-12-08T07:37:36;3.64;99.99
68251;DHT22;55066;51.560;4.642;2022-12-08T07:40:06;3.55;99.99
68251;DHT22;55066;51.560;4.642;2022-12-08T07:42:32;3.70;99.99
68251;DHT22;55066;51.560;4.642;2022-12-08T07:45:00;3.51;99.99
68251;DHT22;55066;51.560;4.642;2022-12-08T07:47:26;3.42;99.99
68251;DHT22;55066;51.560;4.642;2022-12-08T07:49:51;3.31;99.99
68251;DHT22;55066;51.560;4.642;2022-12-08T07:52:20;3.24;99.99
68251;DHT22;55066;51.560;4.642;2022-12-08T07:54:46;3.22;99.99
68251;DHT22;55066;51.560;4.642;2022-12-08T07:57:11;3.29;99.99
68251;DHT22;55066;51.560;4.642;2022-12-08T07:59:40;3.31;99.99
68251;DHT22;55066;51.560;4.642;2022-12-08T08:02:15;3.42;99.99
68251;DHT22;55066;51.560;4.642;2022-12-08T08:04:40;3.36;99.99
68251;DHT22;55066;51.560;4.642;2022-12-08T08:07:09;3.31;99.99
68251;DHT22;55066;51.560;4.642;2022-12-08T08:09:34;3.26;99.99
68251;DHT22;55066;51.560;4.642;2022-12-08T08:12:00;3.35;99.99
68251;DHT22;55066;51.560;4.642;2022-12-08T08:14:28;3.38;99.99
68251;DHT22;55066;51.560;4.642;2022-12-08T08:16:53;3.31;99.99
68251;DHT22;55066;51.560;4.642;2022-12-08T08:19:19;3.24;99.99
68251;DHT22;55066;51.560;4.642;2022-12-08T08:21:44;3.24;99.99
68251;DHT22;55066;51.560;4.642;2022-12-08T08:24:10;3.25;99.99
68251;DHT22;55066;51.560;4.642;2022-12-08T08:26:36;3.28;99.99
68251;DHT22;55066;51.560;4.642;2022-12-08T08:29:01;3.29;99.99
68251;DHT22;55066;51.560;4.642;2022-12-08T08:31:27;3.34;99.99
68251;DHT22;55066;51.560;4.642;2022-12-08T08:33:53;3.38;99.99
68251;DHT22;55066;51.560;4.642;2022-12-08T08:36:19;3.39;99.99
68251;DHT22;55066;51.560;4.642;2022-12-08T08:38:46;3.38;99.99
68251;DHT22;55066;51.560;4.642;2022-12-08T08:41:11;3.32;99.99
68251;DHT22;55066;51.560;4.642;2022-12-08T08:43:37;3.35;99.99
68251;DHT22;55066;51.560;4.642;2022-12-08T08:46:04;3.40;99.99
68251;DHT22;55066;51.560;4.642;2022-12-08T08:48:30;3.45;99.99
68251;DHT22;55066;51.560;4.642;2022-12-08T08:51:13;3.46;99.99
68251;DHT22;55066;51.560;4.642;2022-12-08T08:53:40;3.55;99.99
68251;DHT22;55066;51.560;4.642;2022-12-08T08:56:17;3.60;99.99
68251;DHT22;55066;51.560;4.642;2022-12-08T08:58:47;3.60;99.99
68251;DHT22;55066;51.560;4.642;2022-12-08T09:01:24;3.62;99.99
68251;DHT22;55066;51.560;4.642;2022-12-08T09:03:53;3.64;99.99
68251;DHT22;55066;51.560;4.642;2022-12-08T09:06:20;3.69;99.99
68251;DHT22;55066;51.560;4.642;2022-12-08T09:08:49;3.73;99.99
68251;DHT22;55066;51.560;4.642;2022-12-08T09:11:15;3.72;99.99
68251;DHT22;55066;51.560;4.642;2022-12-08T09:13:42;3.73;99.99
68251;DHT22;55066;51.560;4.642;2022-12-08T09:16:10;3.73;99.99
68251;DHT22;55066;51.560;4.642;2022-12-08T09:18:35;3.74;99.99
68251;DHT22;55066;51.560;4.642;2022-12-08T09:21:06;3.81;99.99
68251;DHT22;55066;51.560;4.642;2022-12-08T09:23:33;3.79;99.99
68251;DHT22;55066;51.560;4.642;2022-12-08T09:25:59;3.79;99.99
68251;DHT22;55066;51.560;4.642;2022-12-08T09:28:24;3.76;99.99
68251;DHT22;55066;51.560;4.642;2022-12-08T09:30:50;3.77;99.99
68251;DHT22;55066;51.560;4.642;2022-12-08T09:33:19;3.76;99.99
68251;DHT22;55066;51.560;4.642;2022-12-08T09:35:44;3.76;99.99
68251;DHT22;55066;51.560;4.642;2022-12-08T09:38:10;3.79;99.99
68251;DHT22;55066;51.560;4.642;2022-12-08T09:40:41;3.83;99.99
68251;DHT22;55066;51.560;4.642;2022-12-08T09:45:46;3.90;99.99
68251;DHT22;55066;51.560;4.642;2022-12-08T09:48:16;3.93;99.99
68251;DHT22;55066;51.560;4.642;2022-12-08T09:50:57;3.97;99.99
68251;DHT22;55066;51.560;4.642;2022-12-08T09:53:41;3.93;99.99
68251;DHT22;55066;51.560;4.642;2022-12-08T09:56:24;3.97;99.99
68251;DHT22;55066;51.560;4.642;2022-12-08T09:59:02;4.01;99.99
68251;DHT22;55066;51.560;4.642;2022-12-08T10:01:34;4.01;99.99
68251;DHT22;55066;51.560;4.642;2022-12-08T10:04:03;3.97;99.99
68251;DHT22;55066;51.560;4.642;2022-12-08T10:14:42;4.00;99.99
68251;DHT22;55066;51.560;4.642;2022-12-08T10:17:19;4.01;99.99
68251;DHT22;55066;51.560;4.642;2022-12-08T10:19:47;4.04;99.99
68251;DHT22;55066;51.560;4.642;2022-12-08T10:22:23;4.07;99.99
68251;DHT22;55066;51.560;4.642;2022-12-08T10:28:12;4.15;99.99
68251;DHT22;55066;51.560;4.642;2022-12-08T10:30:41;4.17;99.99
68251;DHT22;55066;51.560;4.642;2022-12-08T10:33:15;4.19;99.99
68251;DHT22;55066;51.560;4.642;2022-12-08T10:35:57;4.22;99.99
68251;DHT22;55066;51.560;4.642;2022-12-08T10:38:33;4.22;99.99
68251;DHT22;55066;51.560;4.642;2022-12-08T10:41:17;4.19;99.99
68251;DHT22;55066;51.560;4.642;2022-12-08T10:43:48;4.08;99.99
68251;DHT22;55066;51.560;4.642;2022-12-08T10:46:17;4.04;99.99
68251;DHT22;55066;51.560;4.642;2022-12-08T10:51:45;4.14;99.99
68251;DHT22;55066;51.560;4.642;2022-12-08T10:56:57;4.17;99.99
68251;DHT22;55066;51.560;4.642;2022-12-08T10:59:25;4.05;99.99
68251;DHT22;55066;51.560;4.642;2022-12-08T11:01:55;3.93;99.99
68251;DHT22;55066;51.560;4.642;2022-12-08T11:04:33;3.90;99.99
68251;DHT22;55066;51.560;4.642;2022-12-08T11:07:01;3.94;99.99
68251;DHT22;55066;51.560;4.642;2022-12-08T11:09:42;3.97;99.99
68251;DHT22;55066;51.560;4.642;2022-12-08T11:12:19;3.97;99.99
68251;DHT22;55066;51.560;4.642;2022-12-08T11:14:54;3.90;99.99
68251;DHT22;55066;51.560;4.642;2022-12-08T11:20:01;3.97;99.99
68251;DHT22;55066;51.560;4.642;2022-12-08T11:22:34;4.05;99.99
68251;DHT22;55066;51.560;4.642;2022-12-08T11:25:09;4.04;99.99
68251;DHT22;55066;51.560;4.642;2022-12-08T11:27:43;3.95;99.99
68251;DHT22;55066;51.560;4.642;2022-12-08T11:30:15;4.00;99.99
68251;DHT22;55066;51.560;4.642;2022-12-08T11:32:43;4.11;99.99
68251;DHT22;55066;51.560;4.642;2022-12-08T11:35:25;4.17;99.99
68251;DHT22;55066;51.560;4.642;2022-12-08T11:38:13;4.18;99.99
68251;DHT22;55066;51.560;4.642;2022-12-08T11:40:43;4.17;99.99
68251;DHT22;55066;51.560;4.642;2022-12-08T11:46:00;4.11;99.99
68251;DHT22;55066;51.560;4.642;2022-12-08T11:48:51;4.02;99.99
68251;DHT22;55066;51.560;4.642;2022-12-08T11:51:49;4.07;99.99
68251;DHT22;55066;51.560;4.642;2022-12-08T11:54:39;4.12;99.99
68251;DHT22;55066;51.560;4.642;2022-12-08T11:57:04;4.15;99.99
68251;DHT22;55066;51.560;4.642;2022-12-08T11:59:37;4.11;99.99
68251;DHT22;55066;51.560;4.642;2022-12-08T12:02:12;4.12;99.99
68251;DHT22;55066;51.560;4.642;2022-12-08T12:07:57;4.12;99.99
68251;DHT22;55066;51.560;4.642;2022-12-08T12:13:49;4.15;99.99
68251;DHT22;55066;51.560;4.642;2022-12-08T12:19:26;4.15;99.99
68251;DHT22;55066;51.560;4.642;2022-12-08T12:21:57;4.11;99.99
68251;DHT22;55066;51.560;4.642;2022-12-08T12:24:26;4.12;99.99
68251;DHT22;55066;51.560;4.642;2022-12-08T12:27:05;4.07;99.99
68251;DHT22;55066;51.560;4.642;2022-12-08T12:29:34;4.07;99.99
68251;DHT22;55066;51.560;4.642;2022-12-08T12:32:06;4.05;99.99
68251;DHT22;55066;51.560;4.642;2022-12-08T12:34:35;4.08;99.99
68251;DHT22;55066;51.560;4.642;2022-12-08T12:37:16;4.05;99.99
68251;DHT22;55066;51.560;4.642;2022-12-08T12:40:19;4.05;99.99
68251;DHT22;55066;51.560;4.642;2022-12-08T12:47:51;4.08;99.99
68251;DHT22;55066;51.560;4.642;2022-12-08T12:50:44;4.19;99.99
68251;DHT22;55066;51.560;4.642;2022-12-08T12:58:35;4.19;99.99
68251;DHT22;55066;51.560;4.642;2022-12-08T13:04:02;4.18;99.99
68251;DHT22;55066;51.560;4.642;2022-12-08T13:06:49;4.12;99.99
68251;DHT22;55066;51.560;4.642;2022-12-08T13:09:20;4.19;99.99
68251;DHT22;55066;51.560;4.642;2022-12-08T13:11:50;4.18;99.99
68251;DHT22;55066;51.560;4.642;2022-12-08T13:14:38;4.17;99.99
68251;DHT22;55066;51.560;4.642;2022-12-08T13:17:11;4.21;99.99
68251;DHT22;55066;51.560;4.642;2022-12-08T13:19:39;4.10;99.99
68251;DHT22;55066;51.560;4.642;2022-12-08T13:22:47;4.17;99.99
68251;DHT22;55066;51.560;4.642;2022-12-08T13:28:21;4.08;99.99
68251;DHT22;55066;51.560;4.642;2022-12-08T13:30:48;4.05;99.99
68251;DHT22;55066;51.560;4.642;2022-12-08T13:33:24;4.07;99.99
68251;DHT22;55066;51.560;4.642;2022-12-08T13:38:30;3.94;99.99
68251;DHT22;55066;51.560;4.642;2022-12-08T13:41:00;3.90;99.99
68251;DHT22;55066;51.560;4.642;2022-12-08T13:43:40;3.87;99.99
68251;DHT22;55066;51.560;4.642;2022-12-08T13:46:08;3.87;99.99
68251;DHT22;55066;51.560;4.642;2022-12-08T13:49:00;3.98;99.99
68251;DHT22;55066;51.560;4.642;2022-12-08T13:51:29;3.94;99.99
68251;DHT22;55066;51.560;4.642;2022-12-08T13:54:06;3.83;99.99
68251;DHT22;55066;51.560;4.642;2022-12-08T13:56:40;3.89;99.99
68251;DHT22;55066;51.560;4.642;2022-12-08T14:02:00;3.87;99.99
68251;DHT22;55066;51.560;4.642;2022-12-08T14:04:26;3.77;99.99
68251;DHT22;55066;51.560;4.642;2022-12-08T14:06:58;3.63;99.99
68251;DHT22;55066;51.560;4.642;2022-12-08T14:09:32;3.62;99.99
68251;DHT22;55066;51.560;4.642;2022-12-08T14:12:04;3.63;99.99
68251;DHT22;55066;51.560;4.642;2022-12-08T14:14:38;3.66;99.99
68251;DHT22;55066;51.560;4.642;2022-12-08T14:17:13;3.70;99.99
68251;DHT22;55066;51.560;4.642;2022-12-08T14:19:42;3.67;99.99
68251;DHT22;55066;51.560;4.642;2022-12-08T14:24:32;3.67;99.99
68251;DHT22;55066;51.560;4.642;2022-12-08T14:27:00;3.58;99.99
68251;DHT22;55066;51.560;4.642;2022-12-08T14:29:45;3.52;99.99
68251;DHT22;55066;51.560;4.642;2022-12-08T14:32:32;3.49;99.99
68251;DHT22;55066;51.560;4.642;2022-12-08T14:35:17;3.51;99.99
68251;DHT22;55066;51.560;4.642;2022-12-08T14:37:46;3.63;99.99
68251;DHT22;55066;51.560;4.642;2022-12-08T14:40:46;3.79;99.99
68251;DHT22;55066;51.560;4.642;2022-12-08T14:43:17;3.79;99.99
68251;DHT22;55066;51.560;4.642;2022-12-08T14:48:39;3.89;99.99
68251;DHT22;55066;51.560;4.642;2022-12-08T14:51:25;3.72;99.99
68251;DHT22;55066;51.560;4.642;2022-12-08T14:54:07;3.64;99.99
68251;DHT22;55066;51.560;4.642;2022-12-08T14:56:39;3.59;99.99
68251;DHT22;55066;51.560;4.642;2022-12-08T14:59:11;3.55;99.99
68251;DHT22;55066;51.560;4.642;2022-12-08T15:01:38;3.40;99.99
68251;DHT22;55066;51.560;4.642;2022-12-08T15:07:00;3.26;99.99
68251;DHT22;55066;51.560;4.642;2022-12-08T15:14:58;3.18;99.99
68251;DHT22;55066;51.560;4.642;2022-12-08T15:17:48;3.29;99.99
68251;DHT22;55066;51.560;4.642;2022-12-08T15:22:53;3.05;99.99
68251;DHT22;55066;51.560;4.642;2022-12-08T15:25:25;3.05;99.99
68251;DHT22;55066;51.560;4.642;2022-12-08T15:27:53;3.07;99.99
68251;DHT22;55066;51.560;4.642;2022-12-08T15:30:24;3.03;99.99
68251;DHT22;55066;51.560;4.642;2022-12-08T15:32:52;3.00;99.99
68251;DHT22;55066;51.560;4.642;2022-12-08T15:35:20;2.98;99.99
68251;DHT22;55066;51.560;4.642;2022-12-08T15:37:46;3.01;99.99
68251;DHT22;55066;51.560;4.642;2022-12-08T15:40:21;3.04;99.99
68251;DHT22;55066;51.560;4.642;2022-12-08T15:42:47;3.04;99.99
68251;DHT22;55066;51.560;4.642;2022-12-08T15:45:14;3.07;99.99
68251;DHT22;55066;51.560;4.642;2022-12-08T15:47:43;3.04;99.99
68251;DHT22;55066;51.560;4.642;2022-12-08T15:50:20;2.98;99.99
68251;DHT22;55066;51.560;4.642;2022-12-08T15:52:47;2.96;99.99
68251;DHT22;55066;51.560;4.642;2022-12-08T15:55:20;2.97;99.99
68251;DHT22;55066;51.560;4.642;2022-12-08T15:57:48;3.00;99.99
68251;DHT22;55066;51.560;4.642;2022-12-08T16:02:47;2.94;99.99
68251;DHT22;55066;51.560;4.642;2022-12-08T16:05:15;2.91;99.99
68251;DHT22;55066;51.560;4.642;2022-12-08T16:07:41;2.91;99.99
68251;DHT22;55066;51.560;4.642;2022-12-08T16:10:13;2.97;99.99
68251;DHT22;55066;51.560;4.642;2022-12-08T16:12:41;2.93;99.99
68251;DHT22;55066;51.560;4.642;2022-12-08T16:15:28;2.94;99.99
68251;DHT22;55066;51.560;4.642;2022-12-08T16:17:54;2.88;99.99
68251;DHT22;55066;51.560;4.642;2022-12-08T16:20:21;2.80;99.99
68251;DHT22;55066;51.560;4.642;2022-12-08T16:22:47;2.77;99.99
68251;DHT22;55066;51.560;4.642;2022-12-08T16:25:13;2.79;99.99
68251;DHT22;55066;51.560;4.642;2022-12-08T16:27:39;2.87;99.99
68251;DHT22;55066;51.560;4.642;2022-12-08T16:30:07;2.88;99.99
68251;DHT22;55066;51.560;4.642;2022-12-08T16:32:33;2.88;99.99
68251;DHT22;55066;51.560;4.642;2022-12-08T16:34:58;2.91;99.99
68251;DHT22;55066;51.560;4.642;2022-12-08T16:37:25;2.96;99.99
68251;DHT22;55066;51.560;4.642;2022-12-08T16:39:55;2.98;99.99
68251;DHT22;55066;51.560;4.642;2022-12-08T16:42:44;3.04;99.99
68251;DHT22;55066;51.560;4.642;2022-12-08T16:45:21;3.07;99.99
68251;DHT22;55066;51.560;4.642;2022-12-08T16:47:53;3.09;99.99
68251;DHT22;55066;51.560;4.642;2022-12-08T16:50:21;3.08;99.99
68251;DHT22;55066;51.560;4.642;2022-12-08T16:52:48;3.04;99.99
68251;DHT22;55066;51.560;4.642;2022-12-08T16:55:23;3.09;99.99
68251;DHT22;55066;51.560;4.642;2022-12-08T16:57:48;3.07;99.99
68251;DHT22;55066;51.560;4.642;2022-12-08T17:00:20;3.07;99.99
68251;DHT22;55066;51.560;4.642;2022-12-08T17:02:46;3.07;99.99
68251;DHT22;55066;51.560;4.642;2022-12-08T17:05:13;3.09;99.99
68251;DHT22;55066;51.560;4.642;2022-12-08T17:07:43;3.09;99.99
68251;DHT22;55066;51.560;4.642;2022-12-08T17:10:11;3.09;99.99
68251;DHT22;55066;51.560;4.642;2022-12-08T17:12:37;3.12;99.99
68251;DHT22;55066;51.560;4.642;2022-12-08T17:15:05;3.14;99.99
68251;DHT22;55066;51.560;4.642;2022-12-08T17:17:32;3.12;99.99
68251;DHT22;55066;51.560;4.642;2022-12-08T17:20:03;3.14;99.99
68251;DHT22;55066;51.560;4.642;2022-12-08T17:22:33;3.07;99.99
68251;DHT22;55066;51.560;4.642;2022-12-08T17:25:00;3.07;99.99
68251;DHT22;55066;51.560;4.642;2022-12-08T17:27:26;2.96;99.99
68251;DHT22;55066;51.560;4.642;2022-12-08T17:29:51;2.88;99.99
68251;DHT22;55066;51.560;4.642;2022-12-08T17:32:17;2.81;99.99
68251;DHT22;55066;51.560;4.642;2022-12-08T17:34:44;2.75;99.99
68251;DHT22;55066;51.560;4.642;2022-12-08T17:37:10;2.70;99.99
68251;DHT22;55066;51.560;4.642;2022-12-08T17:39:36;2.67;99.99
68251;DHT22;55066;51.560;4.642;2022-12-08T17:42:02;2.61;99.99
68251;DHT22;55066;51.560;4.642;2022-12-08T17:44:27;2.46;99.99
68251;DHT22;55066;51.560;4.642;2022-12-08T17:46:53;2.48;99.99
68251;DHT22;55066;51.560;4.642;2022-12-08T17:49:24;2.36;99.99
68251;DHT22;55066;51.560;4.642;2022-12-08T17:51:52;2.35;99.99